LFOZ

Orléans-Saint-Denis-de-l'Hôtel Airport

Airport
ICAO code
LFOZ
Summary
ICAO Region
EUR
ICAO Territory
Location

, Centre

Serving
Orleans
Elevation
396 ft
Coordinates
47° 53' 49" N , 2° 9' 48" E
Metar
LFOZ 301500Z AUTO 33012KT 290V010 9999 SCT032 BKN039 15/09 Q1011

Runways

Designator Length Width Surface Rops
5/23 1392 30 ASP No/No

Airport map

Aerial View

SKYbrary Partners:

Safety knowledge contributed by: